createdAt,value
2019-05-06T00:01:53.951Z,11.05
2019-05-06T00:04:25.543Z,11.48
2019-05-06T00:06:56.959Z,18.48
2019-05-06T00:09:28.387Z,26.97
2019-05-06T00:11:59.871Z,20.10
2019-05-06T00:14:31.376Z,29.65
2019-05-06T00:17:03.867Z,31.40
2019-05-06T00:19:36.471Z,37.28
2019-05-06T00:22:07.825Z,33.00
2019-05-06T00:24:44.041Z,22.50
2019-05-06T00:27:17.273Z,20.25
2019-05-06T00:29:49.008Z,15.98
2019-05-06T00:32:20.307Z,21.37
2019-05-06T00:34:51.631Z,20.57
2019-05-06T00:37:24.132Z,19.70
2019-05-06T00:39:59.988Z,13.40
2019-05-06T00:42:34.726Z,11.35
2019-05-06T00:45:07.622Z,8.73
2019-05-06T00:47:39.028Z,9.83
2019-05-06T00:50:10.780Z,7.58
2019-05-06T00:52:44.586Z,9.38
2019-05-06T00:55:15.491Z,8.40
2019-05-06T00:57:46.811Z,10.98
2019-05-06T01:00:21.294Z,10.40
2019-05-06T01:02:54.295Z,9.08
2019-05-06T01:05:25.787Z,10.53
2019-05-06T01:07:57.236Z,6.62
2019-05-06T01:10:28.845Z,7.65
2019-05-06T01:13:04.091Z,9.03
2019-05-06T01:15:35.174Z,8.65
2019-05-06T01:18:06.621Z,11.15
2019-05-06T01:20:37.944Z,12.07
2019-05-06T01:23:10.845Z,10.10
2019-05-06T01:25:43.812Z,11.68
2019-05-06T01:28:15.569Z,8.53
2019-05-06T01:30:47.250Z,6.72
2019-05-06T01:33:20.269Z,8.18
2019-05-06T01:35:54.063Z,7.53
2019-05-06T01:38:29.239Z,8.90
2019-05-06T01:41:03.981Z,8.93
2019-05-06T01:43:37.308Z,8.18
2019-05-06T01:46:08.981Z,6.75
2019-05-06T01:48:49.676Z,8.25
2019-05-06T01:51:24.100Z,9.35
2019-05-06T01:53:55.184Z,8.83
2019-05-06T01:56:26.440Z,6.85
2019-05-06T01:58:57.771Z,12.98
2019-05-06T02:01:29.163Z,9.73
2019-05-06T02:04:00.877Z,10.15
2019-05-06T02:06:34.260Z,10.05
2019-05-06T02:09:09.763Z,8.33
2019-05-06T02:11:41.063Z,8.68
2019-05-06T02:14:13.981Z,9.68
2019-05-06T02:16:45.617Z,8.90
2019-05-06T02:19:18.485Z,9.33
2019-05-06T02:21:51.582Z,9.18
2019-05-06T02:24:27.620Z,7.75
2019-05-06T02:26:59.017Z,7.78
2019-05-06T02:29:35.037Z,6.37
2019-05-06T02:32:25.641Z,13.08
2019-05-06T02:34:54.894Z,6.97
2019-05-06T02:37:40.251Z,10.70
2019-05-06T02:40:24.713Z,10.85
2019-05-06T02:42:55.318Z,10.65
2019-05-06T02:45:27.006Z,10.98
2019-05-06T02:48:04.394Z,11.95
2019-05-06T02:50:46.330Z,11.08
2019-05-06T02:53:19.346Z,11.33
2019-05-06T02:55:53.147Z,20.17
2019-05-06T02:58:24.185Z,23.38
2019-05-06T03:00:56.671Z,25.95
2019-05-06T03:03:29.171Z,28.25
2019-05-06T03:06:03.543Z,19.90
2019-05-06T03:08:33.962Z,17.95
2019-05-06T03:11:05.508Z,18.82
2019-05-06T03:13:38.116Z,12.82
2019-05-06T03:16:09.504Z,18.37
2019-05-06T03:18:43.378Z,17.12
2019-05-06T03:21:15.535Z,22.58
2019-05-06T03:23:48.644Z,24.50
2019-05-06T03:26:20.116Z,35.20
2019-05-06T03:28:53.555Z,50.50
2019-05-06T03:31:26.459Z,45.25
2019-05-06T03:34:21.766Z,35.52
2019-05-06T03:36:34.692Z,30.55
2019-05-06T03:39:06.181Z,28.23
2019-05-06T03:41:38.697Z,13.43
2019-05-06T03:44:10.055Z,15.25
2019-05-06T03:46:53.973Z,21.07
2019-05-06T03:49:29.364Z,13.22
2019-05-06T03:52:02.779Z,11.60
2019-05-06T03:54:34.759Z,9.25
2019-05-06T03:57:06.232Z,10.43
2019-05-06T03:59:39.245Z,10.15
2019-05-06T04:02:13.173Z,8.35
2019-05-06T04:04:44.279Z,11.15
2019-05-06T04:07:15.686Z,13.13
2019-05-06T04:09:47.135Z,10.90
2019-05-06T04:12:19.812Z,10.98
2019-05-06T04:14:54.027Z,14.07
2019-05-06T04:17:33.008Z,13.25
2019-05-06T04:23:05.992Z,34.83
2019-05-06T04:25:52.681Z,24.70
2019-05-06T04:28:34.170Z,31.95
2019-05-06T04:31:06.243Z,38.13
2019-05-06T04:33:37.892Z,23.73
2019-05-06T04:36:09.324Z,23.73
2019-05-06T04:38:43.387Z,21.23
2019-05-06T04:41:14.290Z,16.55
2019-05-06T04:43:45.898Z,16.82
2019-05-06T04:46:17.319Z,15.48
2019-05-06T04:48:48.555Z,12.82
2019-05-06T04:51:24.391Z,26.00
2019-05-06T04:53:54.503Z,106.65
2019-05-06T04:56:25.832Z,65.22
2019-05-06T04:58:57.437Z,18.92
2019-05-06T05:01:28.905Z,20.75
2019-05-06T05:04:03.272Z,30.70
2019-05-06T05:06:33.517Z,30.15
2019-05-06T05:09:06.395Z,14.45
2019-05-06T05:11:42.534Z,13.65
2019-05-06T05:14:15.772Z,29.70
2019-05-06T05:17:02.221Z,14.28
2019-05-06T05:19:34.117Z,12.93
2019-05-06T05:22:08.532Z,9.00
2019-05-06T05:24:40.023Z,7.95
2019-05-06T05:27:12.568Z,11.93
2019-05-06T05:29:44.248Z,30.35
2019-05-06T05:32:15.698Z,35.17
2019-05-06T05:34:49.343Z,40.17
2019-05-06T05:37:22.614Z,45.52
2019-05-06T05:39:53.839Z,49.75
2019-05-06T05:42:30.126Z,48.85
2019-05-06T05:45:02.656Z,52.88
2019-05-06T05:47:35.372Z,55.08
2019-05-06T05:50:13.977Z,78.62
2019-05-06T05:52:45.344Z,52.25
2019-05-06T05:55:16.805Z,36.98
2019-05-06T05:57:48.160Z,34.48
2019-05-06T06:00:22.482Z,36.20
2019-05-06T06:02:53.881Z,31.97
2019-05-06T06:05:25.288Z,37.33
2019-05-06T06:07:57.108Z,32.93
2019-05-06T06:10:42.470Z,29.75
2019-05-06T06:13:13.510Z,31.73
2019-05-06T06:15:52.559Z,29.55
2019-05-06T06:18:28.604Z,26.82
2019-05-06T06:21:17.751Z,26.12
2019-05-06T06:23:42.493Z,27.65
2019-05-06T06:26:13.938Z,24.25
2019-05-06T06:28:46.443Z,35.15
2019-05-06T06:31:19.919Z,26.57
2019-05-06T06:33:53.100Z,27.52
2019-05-06T06:36:26.249Z,22.80
2019-05-06T06:38:59.371Z,21.17
2019-05-06T06:41:32.289Z,29.72
2019-05-06T06:44:05.583Z,29.10
2019-05-06T06:46:37.103Z,26.15
2019-05-06T06:49:08.676Z,25.57
2019-05-06T06:51:42.535Z,34.88
2019-05-06T06:54:13.960Z,19.25
2019-05-06T06:56:47.103Z,34.25
2019-05-06T06:59:22.170Z,24.85
2019-05-06T07:02:12.121Z,16.40
2019-05-06T07:04:56.711Z,10.05
2019-05-06T07:07:41.346Z,13.35
2019-05-06T07:10:03.326Z,21.55
2019-05-06T07:12:34.801Z,9.03
2019-05-06T07:15:07.876Z,9.30
2019-05-06T07:17:41.860Z,11.57
2019-05-06T07:20:14.962Z,10.32
2019-05-06T07:22:48.432Z,9.03
2019-05-06T07:25:22.106Z,10.18
2019-05-06T07:27:53.226Z,14.87
2019-05-06T07:30:26.219Z,11.33
2019-05-06T07:33:00.436Z,7.37
2019-05-06T07:35:40.083Z,18.90
2019-05-06T07:38:03.988Z,8.63
2019-05-06T07:40:35.342Z,10.32
2019-05-06T07:43:27.829Z,15.55
2019-05-06T07:46:02.537Z,10.75
2019-05-06T07:48:35.413Z,18.87
2019-05-06T07:51:06.879Z,12.80
2019-05-06T07:53:38.498Z,13.08
2019-05-06T07:56:12.104Z,12.03
2019-05-06T07:58:43.593Z,12.35
2019-05-06T08:01:15.088Z,8.00
2019-05-06T08:03:46.490Z,10.93
2019-05-06T08:06:18.163Z,7.60
2019-05-06T08:08:49.684Z,13.13
2019-05-06T08:11:22.635Z,8.85
2019-05-06T08:13:54.270Z,7.08
2019-05-06T08:16:27.365Z,12.10
2019-05-06T08:18:59.949Z,7.00
2019-05-06T08:21:39.027Z,11.38
2019-05-06T08:24:12.050Z,8.10
2019-05-06T08:26:43.635Z,7.72
2019-05-06T08:29:16.140Z,6.70
2019-05-06T08:31:47.519Z,8.63
2019-05-06T08:34:19.350Z,9.53
2019-05-06T08:36:53.335Z,7.03
2019-05-06T08:39:24.872Z,9.10
2019-05-06T08:41:56.428Z,5.33
2019-05-06T08:44:27.845Z,4.30
2019-05-06T08:47:02.017Z,4.30
2019-05-06T08:49:34.815Z,14.65
2019-05-06T08:52:07.842Z,7.62
2019-05-06T08:54:43.717Z,10.18
2019-05-06T08:57:16.658Z,6.45
2019-05-06T08:59:48.593Z,7.50
2019-05-06T09:02:22.867Z,4.67
2019-05-06T09:04:54.281Z,4.50
2019-05-06T09:07:25.602Z,4.30
2019-05-06T09:09:56.971Z,9.08
2019-05-06T09:12:28.969Z,15.35
2019-05-06T09:15:03.267Z,5.75
2019-05-06T09:17:33.729Z,3.80
2019-05-06T09:20:06.360Z,3.85
2019-05-06T09:22:37.686Z,5.30
2019-05-06T09:25:09.314Z,5.40
2019-05-06T09:27:48.219Z,7.30
2019-05-06T09:30:23.316Z,6.80
2019-05-06T09:32:54.727Z,6.85
2019-05-06T09:35:26.244Z,6.75
2019-05-06T09:37:57.759Z,11.57
2019-05-06T09:40:29.121Z,7.42
2019-05-06T09:43:04.676Z,14.73
2019-05-06T09:45:34.414Z,7.75
2019-05-06T09:48:13.191Z,6.45
2019-05-06T09:50:46.845Z,9.93
2019-05-06T09:53:19.995Z,10.32
2019-05-06T09:56:05.478Z,7.42
2019-05-06T09:58:38.533Z,4.78
2019-05-06T10:01:10.186Z,4.90
2019-05-06T10:03:42.956Z,6.40
2019-05-06T10:06:14.468Z,7.65
2019-05-06T10:08:45.887Z,12.00
2019-05-06T10:11:17.484Z,4.33
2019-05-06T10:13:49.020Z,4.03
2019-05-06T10:16:20.458Z,13.60
2019-05-06T10:18:52.496Z,15.88
2019-05-06T10:21:24.902Z,23.83
2019-05-06T10:23:56.455Z,4.53
2019-05-06T10:26:29.645Z,9.13
2019-05-06T10:29:08.737Z,7.67
2019-05-06T10:31:48.117Z,6.45
2019-05-06T10:34:19.543Z,4.50
2019-05-06T10:37:17.969Z,8.98
2019-05-06T10:39:49.147Z,16.52
2019-05-06T10:42:23.525Z,5.83
2019-05-06T10:45:14.840Z,6.92
2019-05-06T10:47:46.416Z,6.55
2019-05-06T10:50:17.998Z,8.08
2019-05-06T10:53:07.322Z,8.38
2019-05-06T10:55:42.735Z,13.55
2019-05-06T10:58:15.181Z,9.05
2019-05-06T11:00:48.815Z,12.78
2019-05-06T11:03:22.652Z,5.53
2019-05-06T11:05:55.504Z,6.50
2019-05-06T11:08:27.032Z,37.70
2019-05-06T11:11:14.478Z,7.28
2019-05-06T11:13:32.268Z,15.65
2019-05-06T11:16:04.093Z,3.85
2019-05-06T11:18:35.494Z,5.95
2019-05-06T11:21:06.847Z,12.00
2019-05-06T11:23:38.307Z,9.40
2019-05-06T11:26:13.000Z,3.27
2019-05-06T11:28:54.393Z,4.00
2019-05-06T11:31:32.961Z,6.03
2019-05-06T11:34:23.109Z,5.05
2019-05-06T11:36:56.305Z,3.58
2019-05-06T11:39:28.694Z,12.33
2019-05-06T11:42:23.470Z,7.05
2019-05-06T11:44:36.413Z,6.67
2019-05-06T11:47:07.814Z,4.72
2019-05-06T11:49:39.400Z,4.90
2019-05-06T11:52:13.026Z,7.95
2019-05-06T11:54:44.041Z,10.70
2019-05-06T11:57:15.534Z,4.45
2019-05-06T11:59:47.335Z,5.03
2019-05-06T12:02:26.679Z,5.22
2019-05-06T12:04:58.214Z,12.23
2019-05-06T12:07:30.244Z,9.18
2019-05-06T12:10:02.553Z,7.53
2019-05-06T12:12:34.123Z,15.48
2019-05-06T12:15:07.418Z,3.47
2019-05-06T12:17:38.873Z,11.10
2019-05-06T12:20:12.932Z,22.13
2019-05-06T12:22:44.016Z,19.82
2019-05-06T12:25:15.784Z,3.22
2019-05-06T12:27:47.407Z,3.92
2019-05-06T12:30:23.022Z,4.15
2019-05-06T12:32:56.246Z,8.23
2019-05-06T12:35:32.127Z,28.12
2019-05-06T12:38:11.373Z,4.90
2019-05-06T12:40:39.631Z,4.17
2019-05-06T12:43:25.079Z,2.35
2019-05-06T12:46:02.803Z,14.18
2019-05-06T12:48:44.041Z,4.75
2019-05-06T12:51:15.183Z,5.87
2019-05-06T12:53:46.612Z,15.63
2019-05-06T12:56:19.052Z,4.55
2019-05-06T12:58:52.588Z,4.53
2019-05-06T13:01:24.197Z,17.17
2019-05-06T13:03:55.729Z,6.87
2019-05-06T13:06:27.189Z,4.50
2019-05-06T13:09:04.113Z,2.00
2019-05-06T13:11:32.555Z,2.42
2019-05-06T13:14:04.342Z,7.97
2019-05-06T13:16:37.013Z,5.50
2019-05-06T13:19:08.250Z,5.83
2019-05-06T13:21:42.025Z,5.10
2019-05-06T13:24:13.736Z,9.13
2019-05-06T13:26:45.420Z,2.67
2019-05-06T13:29:18.394Z,4.28
2019-05-06T13:31:52.792Z,4.17
2019-05-06T13:34:23.677Z,4.40
2019-05-06T13:36:56.431Z,3.92
2019-05-06T13:39:28.001Z,6.50
2019-05-06T13:41:59.749Z,3.83
2019-05-06T13:44:32.034Z,3.08
2019-05-06T13:47:12.139Z,3.37
2019-05-06T13:49:45.264Z,7.00
2019-05-06T13:52:17.377Z,4.95
2019-05-06T13:54:48.824Z,5.05
2019-05-06T13:57:21.277Z,5.22
2019-05-06T13:59:53.448Z,4.50
2019-05-06T14:02:26.663Z,2.30
2019-05-06T14:04:58.146Z,3.50
2019-05-06T14:07:29.938Z,3.72
2019-05-06T14:10:02.650Z,3.22
2019-05-06T14:12:34.531Z,3.75
2019-05-06T14:15:07.845Z,4.22
2019-05-06T14:17:39.716Z,4.00
2019-05-06T14:20:12.646Z,4.72
2019-05-06T14:22:44.367Z,5.17
2019-05-06T14:25:23.217Z,5.60
2019-05-06T14:27:59.609Z,3.50
2019-05-06T14:30:42.902Z,5.42
2019-05-06T14:33:16.482Z,4.22
2019-05-06T14:35:48.071Z,19.65
2019-05-06T14:38:24.323Z,4.35
2019-05-06T14:41:07.135Z,8.15
2019-05-06T14:43:34.694Z,6.87
2019-05-06T14:46:06.164Z,10.48
2019-05-06T14:48:37.954Z,24.60
2019-05-06T14:51:09.571Z,6.87
2019-05-06T14:53:43.396Z,5.47
2019-05-06T14:56:18.893Z,6.67
2019-05-06T14:59:07.092Z,81.72
2019-05-06T15:01:39.260Z,11.05
2019-05-06T15:04:12.482Z,12.80
2019-05-06T15:06:44.250Z,8.88
2019-05-06T15:09:15.937Z,5.20
2019-05-06T15:11:48.983Z,5.12
2019-05-06T15:14:22.702Z,6.10
2019-05-06T15:16:54.987Z,10.30
2019-05-06T15:19:26.572Z,2.65
2019-05-06T15:22:02.388Z,4.92
2019-05-06T15:24:37.354Z,5.55
2019-05-06T15:27:12.170Z,7.33
2019-05-06T15:29:53.165Z,15.23
2019-05-06T15:32:25.716Z,3.77
2019-05-06T15:38:43.966Z,8.23
2019-05-06T15:41:17.136Z,8.63
2019-05-06T15:43:48.581Z,10.23
2019-05-06T15:46:22.783Z,14.20
2019-05-06T15:48:54.388Z,5.25
2019-05-06T15:51:34.937Z,9.00
2019-05-06T15:54:06.743Z,8.35
2019-05-06T15:56:38.179Z,13.13
2019-05-06T15:59:11.977Z,5.58
2019-05-06T16:01:43.215Z,9.25
2019-05-06T16:04:14.799Z,4.08
2019-05-06T16:06:46.263Z,5.95
2019-05-06T16:09:17.734Z,3.05
2019-05-06T16:11:49.264Z,4.45
2019-05-06T16:14:22.907Z,3.35
2019-05-06T16:16:55.292Z,5.35
2019-05-06T16:19:28.760Z,5.17
2019-05-06T16:22:00.275Z,6.47
2019-05-06T16:24:36.432Z,5.30
2019-05-06T16:27:07.904Z,5.17
2019-05-06T16:29:39.462Z,17.40
2019-05-06T16:32:11.049Z,28.10
2019-05-06T16:34:43.432Z,10.10
2019-05-06T16:37:14.912Z,7.60
2019-05-06T16:39:46.353Z,6.60
2019-05-06T16:42:17.876Z,7.37
2019-05-06T16:44:49.409Z,7.75
2019-05-06T16:47:38.463Z,5.08
2019-05-06T16:50:15.967Z,7.62
2019-05-06T16:52:47.515Z,6.85
2019-05-06T16:55:24.285Z,8.15
2019-05-06T16:57:58.075Z,8.98
2019-05-06T17:00:32.174Z,8.98
2019-05-06T17:03:14.643Z,5.65
2019-05-06T17:06:03.283Z,3.95
2019-05-06T17:08:36.524Z,3.47
2019-05-06T17:11:08.030Z,5.50
2019-05-06T17:13:39.753Z,7.35
2019-05-06T17:16:13.683Z,3.72
2019-05-06T17:18:44.246Z,4.55
2019-05-06T17:21:15.922Z,4.92
2019-05-06T17:23:47.502Z,7.42
2019-05-06T17:26:18.953Z,12.40
2019-05-06T17:28:56.614Z,9.70
2019-05-06T17:31:32.687Z,16.55
2019-05-06T17:34:05.963Z,8.55
2019-05-06T17:36:38.933Z,3.80
2019-05-06T17:39:11.354Z,6.22
2019-05-06T17:41:48.531Z,12.30
2019-05-06T17:44:16.812Z,2.37
2019-05-06T17:46:49.699Z,8.88
2019-05-06T17:49:25.581Z,10.28
2019-05-06T17:52:04.709Z,7.08
2019-05-06T17:54:36.201Z,11.25
2019-05-06T17:57:07.876Z,7.85
2019-05-06T17:59:42.238Z,9.70
2019-05-06T18:02:19.448Z,7.87
2019-05-06T18:04:53.073Z,8.10
2019-05-06T18:07:24.145Z,9.78
2019-05-06T18:09:55.674Z,5.62
2019-05-06T18:12:27.001Z,5.35
2019-05-06T18:14:58.509Z,5.75
2019-05-06T18:17:30.265Z,5.78
2019-05-06T18:20:03.045Z,9.65
2019-05-06T18:22:34.445Z,13.00
2019-05-06T18:25:06.358Z,6.12
2019-05-06T18:27:38.025Z,5.45
2019-05-06T18:30:21.931Z,10.10
2019-05-06T18:32:43.855Z,17.67
2019-05-06T18:35:15.274Z,8.28
2019-05-06T18:37:46.776Z,12.13
2019-05-06T18:40:18.287Z,10.03
2019-05-06T18:42:52.507Z,5.12
2019-05-06T18:45:25.739Z,8.58
2019-05-06T18:47:57.207Z,5.67
2019-05-06T18:50:28.654Z,7.15
2019-05-06T18:53:02.298Z,4.95
2019-05-06T18:55:34.059Z,6.47
2019-05-06T18:58:06.461Z,7.85
2019-05-06T19:00:37.788Z,6.28
2019-05-06T19:03:09.288Z,6.20
2019-05-06T19:05:42.874Z,3.85
2019-05-06T19:08:21.883Z,4.53
2019-05-06T19:10:53.368Z,4.70
2019-05-06T19:13:24.810Z,6.30
2019-05-06T19:15:56.448Z,4.58
2019-05-06T19:18:27.854Z,7.03
2019-05-06T19:20:59.293Z,6.78
2019-05-06T19:23:32.120Z,6.85
2019-05-06T19:26:04.077Z,6.17
2019-05-06T19:28:35.535Z,6.60
2019-05-06T19:31:08.183Z,7.08
2019-05-06T19:33:39.855Z,5.75
2019-05-06T19:36:12.591Z,9.48
2019-05-06T19:38:44.335Z,5.90
2019-05-06T19:41:15.864Z,3.35
2019-05-06T19:43:47.269Z,4.95
2019-05-06T19:46:18.684Z,3.37
2019-05-06T19:48:52.270Z,5.58
2019-05-06T19:51:23.516Z,4.67
2019-05-06T19:53:55.090Z,5.67
2019-05-06T19:56:26.591Z,3.15
2019-05-06T19:58:58.226Z,7.58
2019-05-06T20:01:32.199Z,4.05
2019-05-06T20:04:03.221Z,4.70
2019-05-06T20:06:48.885Z,3.83
2019-05-06T20:09:23.124Z,3.72
2019-05-06T20:12:02.842Z,7.62
2019-05-06T20:14:34.309Z,3.15
2019-05-06T20:17:06.014Z,5.67
2019-05-06T20:19:37.472Z,3.85
2019-05-06T20:22:08.991Z,7.15
2019-05-06T20:24:42.476Z,7.17
2019-05-06T20:27:13.595Z,6.97
2019-05-06T20:29:45.189Z,5.65
2019-05-06T20:32:16.781Z,4.20
2019-05-06T20:34:50.025Z,4.42
2019-05-06T20:37:22.313Z,8.43
2019-05-06T20:39:53.641Z,6.83
2019-05-06T20:42:26.122Z,9.70
2019-05-06T20:44:57.464Z,8.98
2019-05-06T20:47:28.834Z,7.97
2019-05-06T20:50:02.233Z,8.58
2019-05-06T20:52:33.312Z,7.53
2019-05-06T20:55:12.451Z,6.58
2019-05-06T20:57:42.182Z,13.18
2019-05-06T21:00:15.773Z,9.98
2019-05-06T21:02:47.376Z,12.40
2019-05-06T21:05:18.753Z,12.20
2019-05-06T21:07:52.410Z,10.48
2019-05-06T21:10:23.411Z,12.78
2019-05-06T21:12:55.235Z,15.20
2019-05-06T21:15:27.682Z,10.25
2019-05-06T21:18:03.605Z,10.25
2019-05-06T21:20:34.133Z,11.78
2019-05-06T21:23:05.572Z,11.38
2019-05-06T21:25:36.969Z,11.38
2019-05-06T21:28:08.529Z,9.08
2019-05-06T21:30:40.039Z,9.00
2019-05-06T21:33:12.432Z,10.80
2019-05-06T21:35:44.136Z,13.15
2019-05-06T21:38:15.493Z,9.65
2019-05-06T21:40:46.898Z,12.80
2019-05-06T21:43:18.425Z,9.85
2019-05-06T21:45:49.843Z,8.10
2019-05-06T21:48:22.216Z,8.45
2019-05-06T21:50:53.800Z,8.38
2019-05-06T21:53:25.281Z,7.97
2019-05-06T21:55:56.674Z,7.47
2019-05-06T21:58:27.903Z,9.20
2019-05-06T22:01:02.341Z,8.95
2019-05-06T22:03:35.601Z,7.08
2019-05-06T22:06:07.052Z,6.80
2019-05-06T22:08:38.421Z,7.40
2019-05-06T22:11:09.765Z,8.00
2019-05-06T22:13:42.573Z,5.65
2019-05-06T22:16:14.162Z,7.92
2019-05-06T22:18:45.756Z,6.92
2019-05-06T22:21:18.722Z,5.30
2019-05-06T22:23:54.483Z,6.92
2019-05-06T22:26:27.077Z,6.40
2019-05-06T22:28:58.430Z,8.28
2019-05-06T22:31:29.799Z,5.90
2019-05-06T22:34:01.114Z,7.17
2019-05-06T22:36:32.534Z,8.28
2019-05-06T22:39:05.522Z,6.30
2019-05-06T22:41:38.293Z,8.20
2019-05-06T22:44:13.662Z,4.70
2019-05-06T22:46:43.801Z,6.92
2019-05-06T22:49:15.133Z,7.00
2019-05-06T22:51:46.598Z,4.55
2019-05-06T22:54:17.909Z,7.42
2019-05-06T22:56:49.292Z,6.10
2019-05-06T22:59:24.459Z,7.12
2019-05-06T23:01:58.218Z,5.58
2019-05-06T23:04:32.440Z,11.18
2019-05-06T23:07:04.820Z,5.50
2019-05-06T23:09:36.406Z,8.33
2019-05-06T23:12:07.802Z,10.63
2019-05-06T23:14:39.253Z,7.37
2019-05-06T23:17:12.700Z,10.28
2019-05-06T23:19:43.613Z,7.75
2019-05-06T23:22:14.889Z,7.50
2019-05-06T23:24:46.201Z,8.40
2019-05-06T23:27:17.803Z,11.55
2019-05-06T23:29:49.231Z,12.37
2019-05-06T23:32:22.741Z,9.63
2019-05-06T23:34:53.831Z,11.00
2019-05-06T23:37:23.930Z,10.40
2019-05-06T23:40:33.447Z,13.13
2019-05-06T23:43:42.673Z,8.78
2019-05-06T23:46:52.840Z,7.85
2019-05-06T23:50:00.277Z,11.30
2019-05-06T23:53:07.962Z,9.35
2019-05-06T23:56:15.787Z,10.98
2019-05-06T23:58:47.117Z,8.95
